Flight Track Log - Related Links

Times and Time Zones

All times are in EDT time to prevent confusion due to time zone crossing. See the SWA1668 flight status page for this flight to view local times or setup timezone preferences in your user account.

Time Position Orientation Groundspeed Altitude Reporting Facility
EDT Latitude Longitude Course Direction KTS MPH feet Rate Location/Type
Thu 03:23:52 PM 35.1811 -101.4439 98° East 279 321 10,800  Level Albuquerque Center
Thu 03:24:54 PM 35.1572 -101.3292 104° East 338 389 13,900 3,290 Climbing Albuquerque Center
Thu 03:25:56 PM 35.1247 -101.1783 105° East 377 434 17,600 3,048 Climbing Albuquerque Center
Thu 03:26:58 PM 35.0922 -101.0469 107° East 399 459 20,200 2,468 Climbing Albuquerque Center
Thu 03:27:00 PM 35.1269 -101.2409 107° East  Level FlightAware Approximate
Thu 03:28:00 PM 35.0984 -101.1223 100° East  Level FlightAware Approximate
Thu 03:28:00 PM 35.0347 -100.9217 119° Southeast 418 481 22,700  Level Albuquerque Center
Thu 03:29:02 PM 34.9783 -100.7903 118° Southeast 431 496 24,800 1,984 Climbing Albuquerque Center
Thu 03:30:04 PM 34.9175 -100.6539 119° Southeast 449 517 26,800 1,887 Climbing Albuquerque Center
Thu 03:31:06 PM 34.8558 -100.5133 118° Southeast 466 536 28,700 1,824 Climbing Albuquerque Center
Thu 03:32:09 PM 34.7894 -100.3628 118° Southeast 474 545 30,600 1,632 Climbing Albuquerque Center
Thu 03:33:11 PM 34.7242 -100.2175 119° Southeast 485 558 32,100 1,742 Climbing Albuquerque Center
Thu 03:34:13 PM 34.6461 -100.0406 118° Southeast 494 568 34,200 1,645 Climbing Albuquerque Center
Thu 03:35:15 PM 34.5794 -99.8925 119° Southeast 497 572 35,500 1,169 Climbing Albuquerque Center
Thu 03:35:30 PM 34.5708 -99.8622 109° East 498 573 35,700 1,200 Climbing Fort Worth Center
Thu 03:36:30 PM 34.4986 -99.7142 121° Southeast 498 573 37,000 650 Climbing Fort Worth Center
Thu 03:37:30 PM 34.4322 -99.5689 119° Southeast 503 579 37,000  Level Fort Worth Center
Thu 03:38:30 PM 34.3658 -99.4186 118° Southeast 503 579 37,000  Level Fort Worth Center
Thu 03:39:30 PM 34.2933 -99.2586 119° Southeast 493 567 37,000 -400 Level Fort Worth Center
Thu 03:40:30 PM 34.2264 -99.1114 119° Southeast 493 567 36,200 -1,200 Descending Fort Worth Center
Thu 03:41:30 PM 34.1633 -98.9847 121° Southeast 493 567 34,600 -1,950 Descending Fort Worth Center
Thu 03:42:30 PM 34.0964 -98.8406 119° Southeast 493 567 32,300 -2,300 Descending Fort Worth Center
Thu 03:43:30 PM 34.0250 -98.6842 119° Southeast 488 562 30,000 -2,150 Descending Fort Worth Center
Thu 03:44:30 PM 33.9636 -98.5456 118° Southeast 474 545 28,000 -1,967 Descending Fort Worth Center
Thu 03:46:00 PM 33.8867 -98.3936 123° Southeast  Level FlightAware Approximate
Thu 03:46:30 PM 33.8425 -98.2911 123° Southeast 446 513 24,100  Level Fort Worth Center
Thu 03:47:30 PM 33.7828 -98.1656 120° Southeast 434 499 22,200 -1,900 Descending Fort Worth Center
Thu 03:48:30 PM 33.7272 -98.0428 119° Southeast 419 482 20,300 -1,800 Descending Fort Worth Center
Thu 03:49:30 PM 33.6714 -97.9300 121° Southeast 406 467 18,600 -1,500 Descending Fort Worth Center
Thu 03:50:30 PM 33.6239 -97.8275 119° Southeast 406 467 17,300 -1,850 Descending Fort Worth Center
Thu 03:51:30 PM 33.5636 -97.7075 121° Southeast 388 447 14,900 -2,100 Descending Fort Worth Center
Thu 03:52:30 PM 33.5136 -97.6003 119° Southeast 378 435 13,100 -1,700 Descending Fort Worth Center
Thu 03:53:30 PM 33.4636 -97.5006 121° Southeast 368 423 11,500 -1,450 Descending Fort Worth Center
Thu 03:54:30 PM 33.4094 -97.4258 131° Southeast 346 398 10,200 -1,450 Descending Fort Worth Center
Thu 03:55:30 PM 33.3594 -97.3389 125° Southeast 305 351 8,600 -1,500 Descending Fort Worth Center
Thu 03:56:30 PM 33.3719 -97.2492 81° East 274 315 7,200 -1,350 Descending Fort Worth Center
Thu 03:57:30 PM 33.3861 -97.1447 81° East 286 329 5,900 -1,100 Descending Fort Worth Center
Thu 03:58:30 PM 33.3964 -97.0650 81° East 281 323 5,000 -950 Descending Fort Worth Center
Thu 03:59:30 PM 33.3794 -96.9781 103° East 249 287 4,000 -500 Descending Fort Worth Center
Thu 04:00:30 PM 33.3417 -96.9186 127° Southeast 240 276 4,000  Level Fort Worth Center
Thu 04:01:30 PM 33.2956 -96.8542 131° Southeast 249 287 4,000  Level Fort Worth Center
Thu 04:02:30 PM 33.2308 -96.8497 177° South 241 277 4,000  Level Fort Worth Center
Thu 04:03:30 PM 33.1536 -96.8428 176° South 252 290 4,000  Level Fort Worth Center
Thu 04:04:30 PM 33.0889 -96.8383 177° South 257 296 4,000  Level Fort Worth Center
Thu 04:04:46 PM 33.0667 -96.8500 204° Southwest 261 300 4,000 -500 Level Dallas / Fort Worth TRACON
Thu 04:06:30 PM 32.9639 -96.8886 197° South 236 272 3,000 -750 Descending Fort Worth Center
Thu 04:07:34 PM 32.9000 -96.9000 189° South 169 194 1,900 -966 Descending Dallas / Fort Worth TRACON
Thu 04:08:28 PM 32.8833 -96.8833 140° Southeast 140 161 1,100 -889 Descending Dallas / Fort Worth TRACON
Thu 04:10:00 PM 32.8471 -96.8518 140° Southeast  Level Estimated
Thu 04:17:00 PM 32.8471 -96.8518 140° Southeast  Level Estimated

Login

Don't have an account? Register now (free) for customized features, flight alerts, and more!